sensor_id;sensor_type;location;lat;lon;timestamp;P1;durP1;ratioP1;P2;durP2;ratioP2
63664;SDS011;49820;33.966;73.390;2023-02-28T00:00:38;9.05;;;4.15;;
63664;SDS011;49820;33.966;73.390;2023-02-28T00:03:11;8.50;;;4.18;;
63664;SDS011;49820;33.966;73.390;2023-02-28T00:05:40;6.55;;;3.72;;
63664;SDS011;49820;33.966;73.390;2023-02-28T00:08:09;8.55;;;4.53;;
63664;SDS011;49820;33.966;73.390;2023-02-28T00:10:38;9.68;;;4.43;;
63664;SDS011;49820;33.966;73.390;2023-02-28T00:13:08;8.98;;;4.40;;
63664;SDS011;49820;33.966;73.390;2023-02-28T00:15:38;11.23;;;4.53;;
63664;SDS011;49820;33.966;73.390;2023-02-28T00:18:07;8.45;;;4.68;;
63664;SDS011;49820;33.966;73.390;2023-02-28T00:20:36;7.43;;;4.78;;
63664;SDS011;49820;33.966;73.390;2023-02-28T00:23:05;9.82;;;5.13;;
63664;SDS011;49820;33.966;73.390;2023-02-28T00:25:34;9.40;;;4.73;;
63664;SDS011;49820;33.966;73.390;2023-02-28T00:28:03;9.40;;;4.70;;
63664;SDS011;49820;33.966;73.390;2023-02-28T00:30:32;10.20;;;5.13;;
63664;SDS011;49820;33.966;73.390;2023-02-28T00:33:04;8.82;;;5.22;;
63664;SDS011;49820;33.966;73.390;2023-02-28T00:35:33;8.75;;;4.78;;
63664;SDS011;49820;33.966;73.390;2023-02-28T00:38:04;6.97;;;3.58;;
63664;SDS011;49820;33.966;73.390;2023-02-28T00:40:34;5.13;;;2.75;;
63664;SDS011;49820;33.966;73.390;2023-02-28T00:43:03;4.10;;;2.30;;
63664;SDS011;49820;33.966;73.390;2023-02-28T00:45:33;4.00;;;2.13;;
63664;SDS011;49820;33.966;73.390;2023-02-28T00:48:03;3.90;;;2.00;;
63664;SDS011;49820;33.966;73.390;2023-02-28T00:50:32;5.53;;;2.30;;
63664;SDS011;49820;33.966;73.390;2023-02-28T00:53:01;4.38;;;2.15;;
63664;SDS011;49820;33.966;73.390;2023-02-28T00:55:31;3.50;;;2.20;;
63664;SDS011;49820;33.966;73.390;2023-02-28T00:58:00;5.68;;;2.33;;
63664;SDS011;49820;33.966;73.390;2023-02-28T01:00:29;5.00;;;2.40;;
63664;SDS011;49820;33.966;73.390;2023-02-28T01:02:58;5.20;;;2.50;;
63664;SDS011;49820;33.966;73.390;2023-02-28T01:05:27;6.93;;;2.60;;
63664;SDS011;49820;33.966;73.390;2023-02-28T01:07:56;5.73;;;2.40;;
63664;SDS011;49820;33.966;73.390;2023-02-28T01:10:25;6.55;;;2.30;;
63664;SDS011;49820;33.966;73.390;2023-02-28T01:12:59;4.65;;;2.92;;
63664;SDS011;49820;33.966;73.390;2023-02-28T01:15:28;4.40;;;2.13;;
63664;SDS011;49820;33.966;73.390;2023-02-28T01:18:00;5.55;;;2.45;;
63664;SDS011;49820;33.966;73.390;2023-02-28T01:20:30;7.80;;;2.70;;
63664;SDS011;49820;33.966;73.390;2023-02-28T01:23:00;3.28;;;2.53;;
63664;SDS011;49820;33.966;73.390;2023-02-28T01:25:29;4.75;;;2.53;;
63664;SDS011;49820;33.966;73.390;2023-02-28T01:27:58;4.40;;;2.80;;
63664;SDS011;49820;33.966;73.390;2023-02-28T01:30:27;6.80;;;2.60;;
63664;SDS011;49820;33.966;73.390;2023-02-28T01:32:57;5.22;;;2.55;;
63664;SDS011;49820;33.966;73.390;2023-02-28T01:35:26;7.40;;;2.92;;
63664;SDS011;49820;33.966;73.390;2023-02-28T01:37:55;5.15;;;2.65;;
63664;SDS011;49820;33.966;73.390;2023-02-28T02:44:00;5.35;;;3.22;;
63664;SDS011;49820;33.966;73.390;2023-02-28T02:46:36;8.60;;;3.50;;
63664;SDS011;49820;33.966;73.390;2023-02-28T02:49:12;6.25;;;3.20;;
63664;SDS011;49820;33.966;73.390;2023-02-28T02:51:50;5.93;;;3.00;;
63664;SDS011;49820;33.966;73.390;2023-02-28T02:54:23;6.30;;;3.42;;
63664;SDS011;49820;33.966;73.390;2023-02-28T02:57:00;5.57;;;3.65;;
63664;SDS011;49820;33.966;73.390;2023-02-28T02:59:38;5.93;;;3.38;;
63664;SDS011;49820;33.966;73.390;2023-02-28T03:03:23;6.25;;;3.33;;
63664;SDS011;49820;33.966;73.390;2023-02-28T03:06:00;5.93;;;3.05;;
63664;SDS011;49820;33.966;73.390;2023-02-28T03:08:35;4.60;;;3.47;;
63664;SDS011;49820;33.966;73.390;2023-02-28T03:11:10;6.18;;;3.60;;
63664;SDS011;49820;33.966;73.390;2023-02-28T03:14:03;7.60;;;4.00;;
63664;SDS011;49820;33.966;73.390;2023-02-28T03:24:10;6.43;;;3.45;;
63664;SDS011;49820;33.966;73.390;2023-02-28T03:26:50;5.13;;;3.67;;
63664;SDS011;49820;33.966;73.390;2023-02-28T03:29:34;6.85;;;3.90;;
63664;SDS011;49820;33.966;73.390;2023-02-28T03:32:29;6.37;;;3.80;;
63664;SDS011;49820;33.966;73.390;2023-02-28T03:35:08;6.70;;;4.20;;
63664;SDS011;49820;33.966;73.390;2023-02-28T03:37:42;7.10;;;3.10;;
63664;SDS011;49820;33.966;73.390;2023-02-28T03:40:16;5.85;;;3.85;;
63664;SDS011;49820;33.966;73.390;2023-02-28T03:42:55;6.97;;;3.70;;
63664;SDS011;49820;33.966;73.390;2023-02-28T03:45:33;7.55;;;3.80;;
63664;SDS011;49820;33.966;73.390;2023-02-28T03:48:08;5.80;;;3.63;;
63664;SDS011;49820;33.966;73.390;2023-02-28T03:50:44;7.90;;;3.97;;
63664;SDS011;49820;33.966;73.390;2023-02-28T03:53:28;6.57;;;3.40;;
63664;SDS011;49820;33.966;73.390;2023-02-28T04:01:33;7.35;;;3.95;;
63664;SDS011;49820;33.966;73.390;2023-02-28T04:04:17;7.35;;;3.50;;
63664;SDS011;49820;33.966;73.390;2023-02-28T04:06:49;5.85;;;3.28;;
63664;SDS011;49820;33.966;73.390;2023-02-28T04:09:20;6.37;;;3.13;;
63664;SDS011;49820;33.966;73.390;2023-02-28T04:11:50;6.47;;;3.10;;
63664;SDS011;49820;33.966;73.390;2023-02-28T04:14:21;6.43;;;3.25;;
63664;SDS011;49820;33.966;73.390;2023-02-28T04:16:51;7.18;;;3.25;;
63664;SDS011;49820;33.966;73.390;2023-02-28T04:19:21;5.72;;;3.55;;
63664;SDS011;49820;33.966;73.390;2023-02-28T04:21:52;5.45;;;3.00;;
63664;SDS011;49820;33.966;73.390;2023-02-28T04:24:24;5.70;;;2.78;;
63664;SDS011;49820;33.966;73.390;2023-02-28T04:26:56;4.13;;;2.60;;
63664;SDS011;49820;33.966;73.390;2023-02-28T04:29:27;5.13;;;2.58;;
63664;SDS011;49820;33.966;73.390;2023-02-28T04:32:00;4.40;;;2.67;;
63664;SDS011;49820;33.966;73.390;2023-02-28T04:34:31;5.43;;;2.53;;
63664;SDS011;49820;33.966;73.390;2023-02-28T04:37:00;4.88;;;2.60;;
63664;SDS011;49820;33.966;73.390;2023-02-28T04:39:41;5.68;;;2.17;;
63664;SDS011;49820;33.966;73.390;2023-02-28T04:42:11;4.88;;;2.40;;
63664;SDS011;49820;33.966;73.390;2023-02-28T04:44:42;5.57;;;2.60;;
63664;SDS011;49820;33.966;73.390;2023-02-28T04:47:11;4.43;;;2.58;;
63664;SDS011;49820;33.966;73.390;2023-02-28T04:49:40;5.65;;;3.00;;
63664;SDS011;49820;33.966;73.390;2023-02-28T04:52:09;5.63;;;2.80;;
63664;SDS011;49820;33.966;73.390;2023-02-28T04:54:40;5.53;;;2.95;;
63664;SDS011;49820;33.966;73.390;2023-02-28T04:57:09;4.78;;;2.13;;
63664;SDS011;49820;33.966;73.390;2023-02-28T04:59:39;3.88;;;2.17;;
63664;SDS011;49820;33.966;73.390;2023-02-28T05:02:08;5.53;;;2.27;;
63664;SDS011;49820;33.966;73.390;2023-02-28T05:04:37;3.70;;;2.50;;
63664;SDS011;49820;33.966;73.390;2023-02-28T05:07:06;5.10;;;2.40;;
63664;SDS011;49820;33.966;73.390;2023-02-28T05:09:36;5.97;;;2.58;;
63664;SDS011;49820;33.966;73.390;2023-02-28T05:12:05;5.17;;;2.50;;
63664;SDS011;49820;33.966;73.390;2023-02-28T05:14:34;5.85;;;3.05;;
63664;SDS011;49820;33.966;73.390;2023-02-28T05:17:05;5.30;;;3.13;;
63664;SDS011;49820;33.966;73.390;2023-02-28T05:19:34;6.57;;;3.40;;
63664;SDS011;49820;33.966;73.390;2023-02-28T05:22:03;6.05;;;3.03;;
63664;SDS011;49820;33.966;73.390;2023-02-28T05:24:33;5.63;;;3.10;;
63664;SDS011;49820;33.966;73.390;2023-02-28T05:27:02;6.10;;;3.05;;
63664;SDS011;49820;33.966;73.390;2023-02-28T05:29:31;5.68;;;3.00;;
63664;SDS011;49820;33.966;73.390;2023-02-28T05:32:02;7.65;;;3.90;;
63664;SDS011;49820;33.966;73.390;2023-02-28T05:34:31;6.10;;;3.85;;
63664;SDS011;49820;33.966;73.390;2023-02-28T05:37:01;8.63;;;3.65;;
63664;SDS011;49820;33.966;73.390;2023-02-28T05:39:30;6.23;;;2.90;;
63664;SDS011;49820;33.966;73.390;2023-02-28T05:41:59;4.53;;;2.55;;
63664;SDS011;49820;33.966;73.390;2023-02-28T05:44:29;5.65;;;3.15;;
63664;SDS011;49820;33.966;73.390;2023-02-28T05:46:58;5.30;;;3.10;;
63664;SDS011;49820;33.966;73.390;2023-02-28T05:49:28;5.82;;;2.95;;
63664;SDS011;49820;33.966;73.390;2023-02-28T05:51:59;4.07;;;2.57;;
63664;SDS011;49820;33.966;73.390;2023-02-28T05:54:27;4.93;;;2.53;;
63664;SDS011;49820;33.966;73.390;2023-02-28T05:56:56;4.50;;;2.72;;
63664;SDS011;49820;33.966;73.390;2023-02-28T05:59:25;4.77;;;2.47;;
63664;SDS011;49820;33.966;73.390;2023-02-28T06:01:54;6.25;;;3.20;;
63664;SDS011;49820;33.966;73.390;2023-02-28T06:04:23;8.38;;;4.50;;
63664;SDS011;49820;33.966;73.390;2023-02-28T06:06:58;10.13;;;5.90;;
63664;SDS011;49820;33.966;73.390;2023-02-28T06:09:27;12.77;;;6.57;;
63664;SDS011;49820;33.966;73.390;2023-02-28T06:12:01;9.10;;;6.25;;
63664;SDS011;49820;33.966;73.390;2023-02-28T06:14:33;14.70;;;7.32;;
63664;SDS011;49820;33.966;73.390;2023-02-28T06:17:03;12.93;;;7.10;;
63664;SDS011;49820;33.966;73.390;2023-02-28T06:19:32;11.27;;;6.73;;
63664;SDS011;49820;33.966;73.390;2023-02-28T06:22:01;10.00;;;5.90;;
63664;SDS011;49820;33.966;73.390;2023-02-28T06:24:30;9.63;;;5.93;;
63664;SDS011;49820;33.966;73.390;2023-02-28T06:27:00;10.05;;;6.35;;
63664;SDS011;49820;33.966;73.390;2023-02-28T06:29:33;10.18;;;6.13;;
63664;SDS011;49820;33.966;73.390;2023-02-28T06:32:03;14.30;;;6.95;;
63664;SDS011;49820;33.966;73.390;2023-02-28T06:34:32;14.35;;;7.78;;
63664;SDS011;49820;33.966;73.390;2023-02-28T06:37:04;11.13;;;7.22;;
63664;SDS011;49820;33.966;73.390;2023-02-28T06:39:33;11.13;;;6.50;;
63664;SDS011;49820;33.966;73.390;2023-02-28T06:42:02;11.15;;;6.22;;
63664;SDS011;49820;33.966;73.390;2023-02-28T06:44:33;11.57;;;6.40;;
63664;SDS011;49820;33.966;73.390;2023-02-28T06:47:06;9.25;;;5.88;;
63664;SDS011;49820;33.966;73.390;2023-02-28T06:49:36;10.68;;;6.38;;
63664;SDS011;49820;33.966;73.390;2023-02-28T06:52:05;9.55;;;5.90;;
63664;SDS011;49820;33.966;73.390;2023-02-28T06:54:34;10.18;;;5.88;;
63664;SDS011;49820;33.966;73.390;2023-02-28T06:57:05;10.52;;;6.13;;
63664;SDS011;49820;33.966;73.390;2023-02-28T06:59:34;10.32;;;5.90;;
63664;SDS011;49820;33.966;73.390;2023-02-28T07:02:05;12.07;;;6.57;;
63664;SDS011;49820;33.966;73.390;2023-02-28T07:04:35;11.25;;;6.60;;
63664;SDS011;49820;33.966;73.390;2023-02-28T07:07:04;13.33;;;7.20;;
63664;SDS011;49820;33.966;73.390;2023-02-28T07:09:33;11.77;;;6.65;;
63664;SDS011;49820;33.966;73.390;2023-02-28T07:12:02;14.55;;;7.72;;
63664;SDS011;49820;33.966;73.390;2023-02-28T07:14:32;11.30;;;6.95;;
63664;SDS011;49820;33.966;73.390;2023-02-28T07:17:01;14.75;;;7.88;;
63664;SDS011;49820;33.966;73.390;2023-02-28T07:19:30;13.93;;;7.63;;
63664;SDS011;49820;33.966;73.390;2023-02-28T07:21:59;13.67;;;7.37;;
63664;SDS011;49820;33.966;73.390;2023-02-28T07:24:32;14.70;;;8.75;;
63664;SDS011;49820;33.966;73.390;2023-02-28T07:27:02;11.60;;;7.60;;
63664;SDS011;49820;33.966;73.390;2023-02-28T07:29:31;13.70;;;7.88;;
63664;SDS011;49820;33.966;73.390;2023-02-28T07:32:01;13.38;;;8.05;;
63664;SDS011;49820;33.966;73.390;2023-02-28T07:34:30;13.27;;;8.18;;
63664;SDS011;49820;33.966;73.390;2023-02-28T07:37:00;11.10;;;6.93;;
63664;SDS011;49820;33.966;73.390;2023-02-28T07:39:32;11.85;;;7.13;;
63664;SDS011;49820;33.966;73.390;2023-02-28T07:42:05;12.50;;;7.90;;
63664;SDS011;49820;33.966;73.390;2023-02-28T07:44:39;10.17;;;6.97;;
63664;SDS011;49820;33.966;73.390;2023-02-28T07:47:09;12.98;;;7.35;;
63664;SDS011;49820;33.966;73.390;2023-02-28T07:49:38;11.52;;;7.18;;
63664;SDS011;49820;33.966;73.390;2023-02-28T07:52:07;10.17;;;6.17;;
63664;SDS011;49820;33.966;73.390;2023-02-28T07:54:38;9.23;;;6.47;;
63664;SDS011;49820;33.966;73.390;2023-02-28T07:57:07;10.10;;;6.03;;
63664;SDS011;49820;33.966;73.390;2023-02-28T07:59:37;9.57;;;6.10;;
63664;SDS011;49820;33.966;73.390;2023-02-28T08:02:05;9.60;;;5.73;;
63664;SDS011;49820;33.966;73.390;2023-02-28T08:04:35;10.88;;;6.78;;
63664;SDS011;49820;33.966;73.390;2023-02-28T08:07:04;11.27;;;6.65;;
63664;SDS011;49820;33.966;73.390;2023-02-28T08:09:34;9.47;;;6.13;;
63664;SDS011;49820;33.966;73.390;2023-02-28T08:12:02;8.48;;;6.03;;
63664;SDS011;49820;33.966;73.390;2023-02-28T08:14:32;8.85;;;5.97;;
63664;SDS011;49820;33.966;73.390;2023-02-28T08:17:02;8.70;;;6.13;;
63664;SDS011;49820;33.966;73.390;2023-02-28T08:19:31;9.75;;;6.07;;
63664;SDS011;49820;33.966;73.390;2023-02-28T08:22:00;8.38;;;5.78;;
63664;SDS011;49820;33.966;73.390;2023-02-28T08:24:30;7.70;;;5.35;;
63664;SDS011;49820;33.966;73.390;2023-02-28T08:26:58;8.57;;;5.50;;
63664;SDS011;49820;33.966;73.390;2023-02-28T08:29:28;7.30;;;5.07;;
63664;SDS011;49820;33.966;73.390;2023-02-28T08:31:58;8.25;;;4.63;;
63664;SDS011;49820;33.966;73.390;2023-02-28T08:34:27;8.40;;;5.60;;
63664;SDS011;49820;33.966;73.390;2023-02-28T08:36:57;7.90;;;5.47;;
63664;SDS011;49820;33.966;73.390;2023-02-28T08:39:27;10.43;;;5.60;;
63664;SDS011;49820;33.966;73.390;2023-02-28T08:41:57;8.68;;;5.72;;
63664;SDS011;49820;33.966;73.390;2023-02-28T08:44:34;6.97;;;5.28;;
63664;SDS011;49820;33.966;73.390;2023-02-28T08:47:03;8.00;;;5.43;;
63664;SDS011;49820;33.966;73.390;2023-02-28T08:49:32;8.38;;;5.35;;
63664;SDS011;49820;33.966;73.390;2023-02-28T08:52:01;9.30;;;5.47;;
63664;SDS011;49820;33.966;73.390;2023-02-28T08:54:30;7.60;;;5.10;;
63664;SDS011;49820;33.966;73.390;2023-02-28T08:57:02;9.63;;;5.30;;
63664;SDS011;49820;33.966;73.390;2023-02-28T08:59:31;6.18;;;4.93;;
63664;SDS011;49820;33.966;73.390;2023-02-28T09:02:01;7.57;;;5.28;;
63664;SDS011;49820;33.966;73.390;2023-02-28T09:04:30;7.72;;;5.25;;
63664;SDS011;49820;33.966;73.390;2023-02-28T09:07:00;9.32;;;5.55;;
63664;SDS011;49820;33.966;73.390;2023-02-28T09:09:29;8.50;;;5.78;;
63664;SDS011;49820;33.966;73.390;2023-02-28T09:11:58;7.00;;;5.50;;
63664;SDS011;49820;33.966;73.390;2023-02-28T09:14:28;21.50;;;6.40;;
63664;SDS011;49820;33.966;73.390;2023-02-28T09:16:57;17.63;;;5.55;;
63664;SDS011;49820;33.966;73.390;2023-02-28T09:19:26;28.55;;;6.88;;
63664;SDS011;49820;33.966;73.390;2023-02-28T09:21:59;9.25;;;6.07;;
63664;SDS011;49820;33.966;73.390;2023-02-28T09:24:28;9.35;;;5.57;;
63664;SDS011;49820;33.966;73.390;2023-02-28T09:27:00;9.05;;;5.57;;
63664;SDS011;49820;33.966;73.390;2023-02-28T09:29:33;8.20;;;5.40;;
63664;SDS011;49820;33.966;73.390;2023-02-28T09:32:03;8.15;;;5.53;;
63664;SDS011;49820;33.966;73.390;2023-02-28T09:34:34;17.40;;;5.53;;
63664;SDS011;49820;33.966;73.390;2023-02-28T09:37:04;85.55;;;9.50;;
63664;SDS011;49820;33.966;73.390;2023-02-28T09:39:34;8.40;;;6.25;;
63664;SDS011;49820;33.966;73.390;2023-02-28T09:42:03;11.52;;;5.63;;
63664;SDS011;49820;33.966;73.390;2023-02-28T09:44:39;19.88;;;6.03;;
63664;SDS011;49820;33.966;73.390;2023-02-28T09:50:04;44.20;;;7.65;;
63664;SDS011;49820;33.966;73.390;2023-02-28T09:52:54;146.73;;;14.02;;
63664;SDS011;49820;33.966;73.390;2023-02-28T09:57:55;59.78;;;9.30;;
63664;SDS011;49820;33.966;73.390;2023-02-28T10:00:36;107.90;;;11.40;;
63664;SDS011;49820;33.966;73.390;2023-02-28T10:08:28;227.73;;;17.38;;
63664;SDS011;49820;33.966;73.390;2023-02-28T10:14:27;31.35;;;6.55;;
63664;SDS011;49820;33.966;73.390;2023-02-28T10:20:23;147.85;;;13.05;;
63664;SDS011;49820;33.966;73.390;2023-02-28T10:23:34;11.88;;;5.10;;
63664;SDS011;49820;33.966;73.390;2023-02-28T10:26:05;11.45;;;5.03;;
63664;SDS011;49820;33.966;73.390;2023-02-28T10:31:39;156.73;;;13.38;;
63664;SDS011;49820;33.966;73.390;2023-02-28T10:36:26;115.13;;;11.57;;
63664;SDS011;49820;33.966;73.390;2023-02-28T10:38:57;140.80;;;13.18;;
63664;SDS011;49820;33.966;73.390;2023-02-28T10:41:32;25.65;;;5.57;;
